sensor_id;sensor_type;location;lat;lon;timestamp;pressure;altitude;pressure_sealevel;temperature;humidity
37892;BME280;45797;47.466;9.486;2023-05-16T00:04:47;95474.97;;;15.10;64.09
37892;BME280;45797;47.466;9.486;2023-05-16T00:09:49;95476.63;;;15.11;64.66
37892;BME280;45797;47.466;9.486;2023-05-16T00:14:52;95472.53;;;14.99;65.09
37892;BME280;45797;47.466;9.486;2023-05-16T00:19:59;95474.19;;;15.00;65.04
37892;BME280;45797;47.466;9.486;2023-05-16T00:25:01;95471.91;;;15.05;64.97
37892;BME280;45797;47.466;9.486;2023-05-16T00:30:02;95463.03;;;15.06;64.97
37892;BME280;45797;47.466;9.486;2023-05-16T00:35:05;95466.22;;;15.10;65.38
37892;BME280;45797;47.466;9.486;2023-05-16T00:40:08;95465.25;;;15.11;65.10
37892;BME280;45797;47.466;9.486;2023-05-16T00:45:09;95463.59;;;15.10;65.24
37892;BME280;45797;47.466;9.486;2023-05-16T00:50:14;95463.59;;;15.10;65.09
37892;BME280;45797;47.466;9.486;2023-05-16T00:55:17;95461.38;;;15.05;65.45
37892;BME280;45797;47.466;9.486;2023-05-16T01:00:18;95452.47;;;15.06;65.19
37892;BME280;45797;47.466;9.486;2023-05-16T01:05:19;95445.31;;;14.99;65.98
37892;BME280;45797;47.466;9.486;2023-05-16T01:10:20;95450.59;;;14.99;65.65
37892;BME280;45797;47.466;9.486;2023-05-16T01:15:25;95444.19;;;15.01;65.56
37892;BME280;45797;47.466;9.486;2023-05-16T01:20:38;95443.66;;;14.98;66.07
37892;BME280;45797;47.466;9.486;2023-05-16T01:31:47;95443.09;;;14.94;65.80
37892;BME280;45797;47.466;9.486;2023-05-16T01:42:14;95433.22;;;14.96;65.73
37892;BME280;45797;47.466;9.486;2023-05-16T01:47:16;95420.34;;;14.93;66.35
37892;BME280;45797;47.466;9.486;2023-05-16T01:52:35;95434.66;;;14.91;66.40
37892;BME280;45797;47.466;9.486;2023-05-16T01:57:41;95432.19;;;14.89;66.25
37892;BME280;45797;47.466;9.486;2023-05-16T02:02:42;95420.91;;;14.87;66.62
37892;BME280;45797;47.466;9.486;2023-05-16T02:07:46;95429.66;;;14.88;66.19
37892;BME280;45797;47.466;9.486;2023-05-16T02:12:47;95432.59;;;14.84;66.69
37892;BME280;45797;47.466;9.486;2023-05-16T02:17:54;95434.25;;;14.85;66.66
37892;BME280;45797;47.466;9.486;2023-05-16T02:22:55;95435.91;;;14.86;66.32
37892;BME280;45797;47.466;9.486;2023-05-16T02:28:03;95434.25;;;14.85;66.55
37892;BME280;45797;47.466;9.486;2023-05-16T02:33:03;95426.50;;;14.84;66.56
37892;BME280;45797;47.466;9.486;2023-05-16T02:38:24;95412.09;;;14.78;66.39
37892;BME280;45797;47.466;9.486;2023-05-16T02:43:25;95418.47;;;14.76;66.76
37892;BME280;45797;47.466;9.486;2023-05-16T02:48:29;95423.22;;;14.72;66.85
37892;BME280;45797;47.466;9.486;2023-05-16T02:53:33;95415.31;;;14.72;66.20
37892;BME280;45797;47.466;9.486;2023-05-16T02:58:35;95413.50;;;14.73;66.48
37892;BME280;45797;47.466;9.486;2023-05-16T03:03:37;95407.41;;;14.72;66.44
37892;BME280;45797;47.466;9.486;2023-05-16T03:08:37;95407.00;;;14.67;66.95
37892;BME280;45797;47.466;9.486;2023-05-16T03:13:38;95396.75;;;14.64;66.89
37892;BME280;45797;47.466;9.486;2023-05-16T03:18:41;95403.00;;;14.63;66.82
37892;BME280;45797;47.466;9.486;2023-05-16T03:23:42;95392.03;;;14.58;67.13
37892;BME280;45797;47.466;9.486;2023-05-16T03:28:43;95400.25;;;14.55;66.96
37892;BME280;45797;47.466;9.486;2023-05-16T03:34:13;95394.88;;;14.47;67.02
37892;BME280;45797;47.466;9.486;2023-05-16T03:39:16;95402.22;;;14.53;67.23
37892;BME280;45797;47.466;9.486;2023-05-16T03:44:16;95398.59;;;14.54;66.82
37892;BME280;45797;47.466;9.486;2023-05-16T03:49:17;95390.53;;;14.55;66.89
37892;BME280;45797;47.466;9.486;2023-05-16T03:54:27;95394.44;;;14.51;66.97
37892;BME280;45797;47.466;9.486;2023-05-16T03:59:27;95410.00;;;14.45;67.04
37892;BME280;45797;47.466;9.486;2023-05-16T04:04:59;95408.59;;;14.41;67.18
37892;BME280;45797;47.466;9.486;2023-05-16T04:09:59;95415.81;;;14.29;67.77
37892;BME280;45797;47.466;9.486;2023-05-16T04:15:02;95421.91;;;14.29;67.68
37892;BME280;45797;47.466;9.486;2023-05-16T04:20:04;95415.56;;;14.32;67.91
37892;BME280;45797;47.466;9.486;2023-05-16T04:25:08;95419.97;;;14.41;67.52
37892;BME280;45797;47.466;9.486;2023-05-16T04:30:11;95431.09;;;14.45;67.56
37892;BME280;45797;47.466;9.486;2023-05-16T04:35:25;95428.28;;;14.46;67.06
37892;BME280;45797;47.466;9.486;2023-05-16T04:40:26;95421.78;;;14.41;67.60
37892;BME280;45797;47.466;9.486;2023-05-16T04:45:28;95420.13;;;14.30;67.42
37892;BME280;45797;47.466;9.486;2023-05-16T04:50:35;95424.16;;;14.24;67.68
37892;BME280;45797;47.466;9.486;2023-05-16T04:55:46;95430.69;;;14.20;67.66
37892;BME280;45797;47.466;9.486;2023-05-16T05:00:47;95433.59;;;14.17;67.96
37892;BME280;45797;47.466;9.486;2023-05-16T05:05:49;95423.38;;;14.14;67.97
37892;BME280;45797;47.466;9.486;2023-05-16T05:10:51;95425.31;;;14.12;68.15
37892;BME280;45797;47.466;9.486;2023-05-16T05:15:58;95430.28;;;14.15;68.16
37892;BME280;45797;47.466;9.486;2023-05-16T05:20:58;95437.78;;;14.10;68.42
37892;BME280;45797;47.466;9.486;2023-05-16T05:26:01;95439.16;;;14.24;67.90
37892;BME280;45797;47.466;9.486;2023-05-16T05:31:03;95440.38;;;14.29;67.74
37892;BME280;45797;47.466;9.486;2023-05-16T05:36:16;95438.13;;;14.44;67.70
37892;BME280;45797;47.466;9.486;2023-05-16T05:41:21;95444.78;;;14.48;67.50
37892;BME280;45797;47.466;9.486;2023-05-16T05:46:24;95442.03;;;14.50;67.49
37892;BME280;45797;47.466;9.486;2023-05-16T05:51:24;95443.53;;;14.52;67.78
37892;BME280;45797;47.466;9.486;2023-05-16T05:56:26;95446.25;;;14.70;67.24
37892;BME280;45797;47.466;9.486;2023-05-16T06:01:26;95439.81;;;14.82;67.19
37892;BME280;45797;47.466;9.486;2023-05-16T06:06:38;95440.03;;;14.99;66.39
37892;BME280;45797;47.466;9.486;2023-05-16T06:11:39;95439.34;;;14.97;66.69
37892;BME280;45797;47.466;9.486;2023-05-16T06:16:51;95433.09;;;14.98;66.84
37892;BME280;45797;47.466;9.486;2023-05-16T06:21:52;95434.22;;;14.95;66.95
37892;BME280;45797;47.466;9.486;2023-05-16T06:27:01;95430.50;;;14.88;67.09
37892;BME280;45797;47.466;9.486;2023-05-16T06:32:04;95432.03;;;14.91;67.28
37892;BME280;45797;47.466;9.486;2023-05-16T06:37:05;95444.41;;;14.80;67.14
37892;BME280;45797;47.466;9.486;2023-05-16T06:42:09;95448.22;;;14.58;67.61
37892;BME280;45797;47.466;9.486;2023-05-16T06:47:13;95450.88;;;14.39;67.57
37892;BME280;45797;47.466;9.486;2023-05-16T06:52:20;95459.94;;;14.17;68.06
37892;BME280;45797;47.466;9.486;2023-05-16T06:57:24;95467.19;;;14.06;68.25
37892;BME280;45797;47.466;9.486;2023-05-16T07:02:26;95460.50;;;14.01;68.22
37892;BME280;45797;47.466;9.486;2023-05-16T07:07:26;95463.69;;;14.15;67.91
37892;BME280;45797;47.466;9.486;2023-05-16T07:12:27;95466.34;;;14.15;67.72
37892;BME280;45797;47.466;9.486;2023-05-16T07:17:29;95466.59;;;14.12;67.61
37892;BME280;45797;47.466;9.486;2023-05-16T07:22:31;95465.09;;;14.09;67.90
37892;BME280;45797;47.466;9.486;2023-05-16T07:27:31;95456.47;;;14.17;67.96
37892;BME280;45797;47.466;9.486;2023-05-16T07:32:35;95460.88;;;14.36;67.30
37892;BME280;45797;47.466;9.486;2023-05-16T07:37:42;95461.00;;;14.44;66.86
37892;BME280;45797;47.466;9.486;2023-05-16T07:42:44;95464.91;;;14.49;67.13
37892;BME280;45797;47.466;9.486;2023-05-16T07:47:46;95461.28;;;14.60;66.90
37892;BME280;45797;47.466;9.486;2023-05-16T07:52:46;95468.19;;;14.71;66.71
37892;BME280;45797;47.466;9.486;2023-05-16T07:57:51;95460.34;;;14.89;66.28
37892;BME280;45797;47.466;9.486;2023-05-16T08:03:01;95462.31;;;14.77;66.37
37892;BME280;45797;47.466;9.486;2023-05-16T08:08:03;95459.72;;;14.67;66.40
37892;BME280;45797;47.466;9.486;2023-05-16T08:13:05;95464.75;;;14.98;66.36
37892;BME280;45797;47.466;9.486;2023-05-16T08:18:11;95466.13;;;15.29;65.38
37892;BME280;45797;47.466;9.486;2023-05-16T08:23:13;95454.75;;;15.47;65.24
37892;BME280;45797;47.466;9.486;2023-05-16T08:28:16;95461.41;;;15.51;64.99
37892;BME280;45797;47.466;9.486;2023-05-16T08:33:17;95468.06;;;15.55;65.14
37892;BME280;45797;47.466;9.486;2023-05-16T08:38:18;95465.75;;;15.87;64.62
37892;BME280;45797;47.466;9.486;2023-05-16T08:43:23;95466.81;;;16.12;63.73
37892;BME280;45797;47.466;9.486;2023-05-16T08:48:31;95471.44;;;15.92;64.24
37892;BME280;45797;47.466;9.486;2023-05-16T08:53:39;95471.03;;;15.87;64.56
37892;BME280;45797;47.466;9.486;2023-05-16T08:58:45;95473.44;;;15.81;64.66
37892;BME280;45797;47.466;9.486;2023-05-16T09:03:46;95471.44;;;15.92;64.27
37892;BME280;45797;47.466;9.486;2023-05-16T09:08:49;95462.47;;;16.29;63.65
37892;BME280;45797;47.466;9.486;2023-05-16T09:13:51;95463.44;;;16.28;63.61
37892;BME280;45797;47.466;9.486;2023-05-16T09:18:56;95461.38;;;16.14;63.75
37892;BME280;45797;47.466;9.486;2023-05-16T09:24:08;95455.63;;;16.00;64.17
37892;BME280;45797;47.466;9.486;2023-05-16T09:29:12;95453.13;;;16.17;64.42
37892;BME280;45797;47.466;9.486;2023-05-16T09:34:12;95445.94;;;16.09;64.21
37892;BME280;45797;47.466;9.486;2023-05-16T09:39:14;95447.25;;;16.05;64.08
37892;BME280;45797;47.466;9.486;2023-05-16T09:44:17;95448.88;;;16.24;63.76
37892;BME280;45797;47.466;9.486;2023-05-16T09:49:19;95447.19;;;16.41;63.42
37892;BME280;45797;47.466;9.486;2023-05-16T09:54:30;95436.34;;;16.52;63.40
37892;BME280;45797;47.466;9.486;2023-05-16T09:59:37;95428.66;;;16.59;63.19
37892;BME280;45797;47.466;9.486;2023-05-16T10:04:38;95418.91;;;16.67;63.50
37892;BME280;45797;47.466;9.486;2023-05-16T10:09:49;95418.78;;;17.03;62.57
37892;BME280;45797;47.466;9.486;2023-05-16T10:14:51;95421.50;;;17.19;62.74
37892;BME280;45797;47.466;9.486;2023-05-16T10:19:52;95418.38;;;17.32;61.91
37892;BME280;45797;47.466;9.486;2023-05-16T10:25:31;95421.81;;;17.24;62.23
37892;BME280;45797;47.466;9.486;2023-05-16T10:30:53;95417.56;;;17.31;62.46
37892;BME280;45797;47.466;9.486;2023-05-16T10:35:56;95418.66;;;17.12;62.93
37892;BME280;45797;47.466;9.486;2023-05-16T10:40:59;95413.53;;;16.77;63.91
37892;BME280;45797;47.466;9.486;2023-05-16T10:46:07;95407.59;;;16.49;63.97
37892;BME280;45797;47.466;9.486;2023-05-16T10:56:43;95427.50;;;15.74;65.57
37892;BME280;45797;47.466;9.486;2023-05-16T11:01:51;95441.22;;;15.32;66.37
37892;BME280;45797;47.466;9.486;2023-05-16T11:06:53;95420.19;;;14.95;67.76
37892;BME280;45797;47.466;9.486;2023-05-16T11:11:58;95420.88;;;14.69;68.38
37892;BME280;45797;47.466;9.486;2023-05-16T11:22:32;95440.66;;;14.26;68.65
37892;BME280;45797;47.466;9.486;2023-05-16T11:27:52;95453.31;;;14.13;68.46
37892;BME280;45797;47.466;9.486;2023-05-16T11:32:54;95462.75;;;13.87;69.81
37892;BME280;45797;47.466;9.486;2023-05-16T11:37:56;95453.06;;;13.78;70.23
37892;BME280;45797;47.466;9.486;2023-05-16T11:43:02;95455.00;;;13.76;69.79
37892;BME280;45797;47.466;9.486;2023-05-16T11:48:04;95472.44;;;13.77;70.02
37892;BME280;45797;47.466;9.486;2023-05-16T11:53:05;95479.50;;;13.66;70.10
37892;BME280;45797;47.466;9.486;2023-05-16T11:58:14;95479.66;;;13.55;70.46
37892;BME280;45797;47.466;9.486;2023-05-16T12:03:18;95493.47;;;13.48;70.65
37892;BME280;45797;47.466;9.486;2023-05-16T12:08:30;95487.22;;;13.39;71.16
37892;BME280;45797;47.466;9.486;2023-05-16T12:13:30;95494.81;;;13.32;71.39
37892;BME280;45797;47.466;9.486;2023-05-16T12:18:38;95500.75;;;13.34;71.39
37892;BME280;45797;47.466;9.486;2023-05-16T12:23:41;95495.81;;;13.41;71.15
37892;BME280;45797;47.466;9.486;2023-05-16T12:28:43;95483.47;;;13.41;71.53
37892;BME280;45797;47.466;9.486;2023-05-16T12:33:44;95489.56;;;13.42;71.65
37892;BME280;45797;47.466;9.486;2023-05-16T12:38:46;95491.22;;;13.43;71.56
37892;BME280;45797;47.466;9.486;2023-05-16T12:44:16;95488.75;;;13.41;71.35
37892;BME280;45797;47.466;9.486;2023-05-16T12:49:47;95503.69;;;13.41;71.42
37892;BME280;45797;47.466;9.486;2023-05-16T12:54:48;95515.06;;;13.41;71.89
37892;BME280;45797;47.466;9.486;2023-05-16T12:59:58;95506.31;;;13.41;71.60
37892;BME280;45797;47.466;9.486;2023-05-16T13:04:58;95521.28;;;13.40;72.01
37892;BME280;45797;47.466;9.486;2023-05-16T13:10:01;95529.88;;;13.42;72.34
37892;BME280;45797;47.466;9.486;2023-05-16T13:15:06;95524.47;;;13.44;71.88
37892;BME280;45797;47.466;9.486;2023-05-16T13:20:10;95529.88;;;13.52;72.04
37892;BME280;45797;47.466;9.486;2023-05-16T13:25:15;95540.28;;;13.54;71.71
37892;BME280;45797;47.466;9.486;2023-05-16T13:30:18;95531.03;;;13.59;71.87
37892;BME280;45797;47.466;9.486;2023-05-16T13:35:20;95542.81;;;13.55;71.75
37892;BME280;45797;47.466;9.486;2023-05-16T13:40:22;95542.81;;;13.55;72.04
37892;BME280;45797;47.466;9.486;2023-05-16T13:45:23;95548.75;;;13.57;72.04
37892;BME280;45797;47.466;9.486;2023-05-16T13:50:23;95547.94;;;13.66;71.87
37892;BME280;45797;47.466;9.486;2023-05-16T13:55:24;95550.97;;;13.71;71.99
37892;BME280;45797;47.466;9.486;2023-05-16T14:00:28;95551.28;;;13.78;71.96
37892;BME280;45797;47.466;9.486;2023-05-16T14:05:30;95560.00;;;13.79;72.20
37892;BME280;45797;47.466;9.486;2023-05-16T14:10:30;95553.38;;;13.75;72.02
37892;BME280;45797;47.466;9.486;2023-05-16T14:15:31;95559.34;;;13.86;72.13
37892;BME280;45797;47.466;9.486;2023-05-16T14:20:32;95554.91;;;13.96;72.11
37892;BME280;45797;47.466;9.486;2023-05-16T14:25:32;95559.75;;;14.01;71.94
37892;BME280;45797;47.466;9.486;2023-05-16T14:30:34;95561.16;;;14.15;71.69
37892;BME280;45797;47.466;9.486;2023-05-16T14:35:36;95556.88;;;14.14;71.95
37892;BME280;45797;47.466;9.486;2023-05-16T14:40:48;95563.38;;;14.19;71.80
37892;BME280;45797;47.466;9.486;2023-05-16T14:45:49;95567.13;;;14.17;72.42
37892;BME280;45797;47.466;9.486;2023-05-16T14:51:06;95576.81;;;14.16;71.85
37892;BME280;45797;47.466;9.486;2023-05-16T14:56:07;95576.81;;;14.26;71.94
37892;BME280;45797;47.466;9.486;2023-05-16T15:01:07;95576.16;;;14.34;71.84
37892;BME280;45797;47.466;9.486;2023-05-16T15:06:07;95573.50;;;14.43;71.84
37892;BME280;45797;47.466;9.486;2023-05-16T15:11:23;95577.00;;;14.53;71.38
37892;BME280;45797;47.466;9.486;2023-05-16T15:16:25;95583.63;;;14.67;71.54
37892;BME280;45797;47.466;9.486;2023-05-16T15:21:26;95588.06;;;14.57;71.32
37892;BME280;45797;47.466;9.486;2023-05-16T15:26:27;95591.84;;;14.45;71.75
37892;BME280;45797;47.466;9.486;2023-05-16T15:31:28;95592.09;;;14.32;72.22
37892;BME280;45797;47.466;9.486;2023-05-16T15:36:31;95587.78;;;14.21;72.48
37892;BME280;45797;47.466;9.486;2023-05-16T15:41:33;95595.94;;;14.18;72.62
37892;BME280;45797;47.466;9.486;2023-05-16T15:46:39;95602.19;;;14.17;72.48
37892;BME280;45797;47.466;9.486;2023-05-16T15:51:40;95606.09;;;14.13;72.37
37892;BME280;45797;47.466;9.486;2023-05-16T15:56:42;95598.19;;;14.13;72.87
37892;BME280;45797;47.466;9.486;2023-05-16T16:01:50;95608.97;;;14.10;72.71
37892;BME280;45797;47.466;9.486;2023-05-16T16:06:52;95596.38;;;14.04;72.84
37892;BME280;45797;47.466;9.486;2023-05-16T16:12:04;95601.34;;;13.97;72.87
37892;BME280;45797;47.466;9.486;2023-05-16T16:17:11;95600.81;;;14.04;72.87
37892;BME280;45797;47.466;9.486;2023-05-16T16:22:13;95613.00;;;14.14;72.60
37892;BME280;45797;47.466;9.486;2023-05-16T16:27:14;95605.38;;;14.21;72.60
37892;BME280;45797;47.466;9.486;2023-05-16T16:32:22;95608.44;;;14.26;72.96
37892;BME280;45797;47.466;9.486;2023-05-16T16:37:26;95611.22;;;14.34;72.46
37892;BME280;45797;47.466;9.486;2023-05-16T16:42:38;95606.34;;;14.29;72.59
37892;BME280;45797;47.466;9.486;2023-05-16T16:47:48;95612.75;;;14.27;72.40
37892;BME280;45797;47.466;9.486;2023-05-16T16:52:59;95611.50;;;14.21;72.63
37892;BME280;45797;47.466;9.486;2023-05-16T16:58:02;95620.63;;;14.08;72.89
37892;BME280;45797;47.466;9.486;2023-05-16T17:03:02;95623.75;;;13.82;73.22
37892;BME280;45797;47.466;9.486;2023-05-16T17:08:15;95621.34;;;13.60;73.72
37892;BME280;45797;47.466;9.486;2023-05-16T17:13:16;95642.34;;;13.50;73.97
37892;BME280;45797;47.466;9.486;2023-05-16T17:18:17;95652.38;;;13.35;74.15
37892;BME280;45797;47.466;9.486;2023-05-16T17:23:20;95658.34;;;13.16;74.39
37892;BME280;45797;47.466;9.486;2023-05-16T17:28:33;95666.56;;;13.02;74.26
37892;BME280;45797;47.466;9.486;2023-05-16T17:33:33;95673.28;;;12.95;74.83
37892;BME280;45797;47.466;9.486;2023-05-16T17:38:41;95678.22;;;12.88;74.67
37892;BME280;45797;47.466;9.486;2023-05-16T17:43:41;95689.41;;;12.81;74.65
37892;BME280;45797;47.466;9.486;2023-05-16T17:48:44;95700.34;;;12.86;74.73
37892;BME280;45797;47.466;9.486;2023-05-16T17:53:53;95693.69;;;12.82;74.27
37892;BME280;45797;47.466;9.486;2023-05-16T17:58:54;95717.84;;;12.76;74.17
37892;BME280;45797;47.466;9.486;2023-05-16T18:03:56;95729.31;;;12.75;74.56
37892;BME280;45797;47.466;9.486;2023-05-16T18:08:58;95732.34;;;12.70;74.56
37892;BME280;45797;47.466;9.486;2023-05-16T18:14:01;95745.81;;;12.66;74.62
37892;BME280;45797;47.466;9.486;2023-05-16T18:19:01;95745.38;;;12.61;74.88
37892;BME280;45797;47.466;9.486;2023-05-16T18:24:04;95750.28;;;12.54;74.91
37892;BME280;45797;47.466;9.486;2023-05-16T18:29:15;95754.72;;;12.53;74.85
37892;BME280;45797;47.466;9.486;2023-05-16T18:34:26;95761.75;;;12.53;74.76
37892;BME280;45797;47.466;9.486;2023-05-16T18:39:29;95763.28;;;12.55;74.78
37892;BME280;45797;47.466;9.486;2023-05-16T18:44:30;95770.47;;;12.53;74.64
37892;BME280;45797;47.466;9.486;2023-05-16T18:49:31;95776.56;;;12.54;74.69
37892;BME280;45797;47.466;9.486;2023-05-16T18:54:40;95776.19;;;12.58;74.52
37892;BME280;45797;47.466;9.486;2023-05-16T18:59:42;95790.97;;;12.59;74.27
37892;BME280;45797;47.466;9.486;2023-05-16T19:04:50;95796.25;;;12.59;74.53
37892;BME280;45797;47.466;9.486;2023-05-16T19:09:52;95800.78;;;12.57;74.65
37892;BME280;45797;47.466;9.486;2023-05-16T19:14:53;95807.25;;;12.53;74.84
37892;BME280;45797;47.466;9.486;2023-05-16T19:19:55;95806.28;;;12.54;74.63
37892;BME280;45797;47.466;9.486;2023-05-16T19:24:58;95818.00;;;12.50;74.53
37892;BME280;45797;47.466;9.486;2023-05-16T19:30:04;95827.31;;;12.54;74.31
37892;BME280;45797;47.466;9.486;2023-05-16T19:35:22;95823.25;;;12.50;74.42
37892;BME280;45797;47.466;9.486;2023-05-16T19:40:22;95830.41;;;12.48;74.63
37892;BME280;45797;47.466;9.486;2023-05-16T19:45:39;95851.31;;;12.50;74.15
37892;BME280;45797;47.466;9.486;2023-05-16T19:50:41;95861.34;;;12.56;74.23
37892;BME280;45797;47.466;9.486;2023-05-16T19:55:44;95854.41;;;12.55;74.22
37892;BME280;45797;47.466;9.486;2023-05-16T20:00:48;95869.22;;;12.56;73.99
37892;BME280;45797;47.466;9.486;2023-05-16T20:06:03;95870.19;;;12.55;73.93
37892;BME280;45797;47.466;9.486;2023-05-16T20:11:05;95872.09;;;12.64;73.74
37892;BME280;45797;47.466;9.486;2023-05-16T20:16:05;95888.22;;;12.71;73.69
37892;BME280;45797;47.466;9.486;2023-05-16T20:21:06;95898.13;;;12.67;73.61
37892;BME280;45797;47.466;9.486;2023-05-16T20:26:08;95905.28;;;12.65;73.76
37892;BME280;45797;47.466;9.486;2023-05-16T20:31:20;95908.28;;;12.49;73.77
37892;BME280;45797;47.466;9.486;2023-05-16T20:36:33;95919.28;;;12.43;73.96
37892;BME280;45797;47.466;9.486;2023-05-16T20:41:34;95920.31;;;12.41;74.16
37892;BME280;45797;47.466;9.486;2023-05-16T20:46:35;95928.47;;;12.38;74.11
37892;BME280;45797;47.466;9.486;2023-05-16T20:51:37;95929.66;;;12.34;73.76
37892;BME280;45797;47.466;9.486;2023-05-16T20:56:39;95931.19;;;12.25;74.25
37892;BME280;45797;47.466;9.486;2023-05-16T21:01:53;95925.44;;;12.20;74.62
37892;BME280;45797;47.466;9.486;2023-05-16T21:06:54;95928.78;;;12.22;73.97
37892;BME280;45797;47.466;9.486;2023-05-16T21:12:01;95931.53;;;12.20;74.18
37892;BME280;45797;47.466;9.486;2023-05-16T21:17:18;95939.16;;;12.12;74.00
37892;BME280;45797;47.466;9.486;2023-05-16T21:22:19;95929.28;;;12.16;74.18
37892;BME280;45797;47.466;9.486;2023-05-16T21:27:20;95939.28;;;12.22;73.79
37892;BME280;45797;47.466;9.486;2023-05-16T21:32:22;95939.78;;;12.27;73.75
37892;BME280;45797;47.466;9.486;2023-05-16T21:37:27;95947.53;;;12.28;73.38
37892;BME280;45797;47.466;9.486;2023-05-16T21:42:29;95946.84;;;12.26;73.57
37892;BME280;45797;47.466;9.486;2023-05-16T21:47:44;95951.00;;;12.18;73.53
37892;BME280;45797;47.466;9.486;2023-05-16T21:52:46;95955.66;;;12.14;73.94
37892;BME280;45797;47.466;9.486;2023-05-16T21:57:46;95957.66;;;12.11;73.81
37892;BME280;45797;47.466;9.486;2023-05-16T22:02:47;95964.81;;;12.09;74.04
37892;BME280;45797;47.466;9.486;2023-05-16T22:07:48;95961.47;;;12.07;73.76
37892;BME280;45797;47.466;9.486;2023-05-16T22:12:49;95968.84;;;12.01;73.91
37892;BME280;45797;47.466;9.486;2023-05-16T22:18:06;95976.56;;;11.92;73.94
37892;BME280;45797;47.466;9.486;2023-05-16T22:23:11;95985.28;;;11.92;73.66
37892;BME280;45797;47.466;9.486;2023-05-16T22:28:30;95979.66;;;11.86;73.81
37892;BME280;45797;47.466;9.486;2023-05-16T22:33:30;95982.19;;;11.87;74.03
37892;BME280;45797;47.466;9.486;2023-05-16T22:38:30;95974.50;;;11.84;73.63
37892;BME280;45797;47.466;9.486;2023-05-16T22:43:32;95977.03;;;11.86;73.87
37892;BME280;45797;47.466;9.486;2023-05-16T22:48:32;95982.63;;;11.81;74.01
37892;BME280;45797;47.466;9.486;2023-05-16T22:53:33;95981.16;;;11.77;74.03
37892;BME280;45797;47.466;9.486;2023-05-16T22:58:39;95987.28;;;11.65;73.88
37892;BME280;45797;47.466;9.486;2023-05-16T23:03:42;95988.97;;;11.66;74.08
37892;BME280;45797;47.466;9.486;2023-05-16T23:08:43;95990.84;;;11.64;74.09
37892;BME280;45797;47.466;9.486;2023-05-16T23:13:43;96002.19;;;11.64;74.08
37892;BME280;45797;47.466;9.486;2023-05-16T23:18:51;95995.16;;;11.65;73.69
37892;BME280;45797;47.466;9.486;2023-05-16T23:23:57;96010.28;;;11.61;73.71
37892;BME280;45797;47.466;9.486;2023-05-16T23:29:03;96016.59;;;11.59;73.39
37892;BME280;45797;47.466;9.486;2023-05-16T23:34:11;96015.13;;;11.55;73.76
37892;BME280;45797;47.466;9.486;2023-05-16T23:39:12;96017.03;;;11.53;73.52
37892;BME280;45797;47.466;9.486;2023-05-16T23:44:14;96028.47;;;11.52;73.95
37892;BME280;45797;47.466;9.486;2023-05-16T23:49:17;96032.28;;;11.48;74.09
37892;BME280;45797;47.466;9.486;2023-05-16T23:54:24;96029.13;;;11.42;73.68
37892;BME280;45797;47.466;9.486;2023-05-16T23:59:25;96028.66;;;11.37;74.02
